KABQ

Albuquerque International Sunport Airport

Albuquerque, New Mexico, USA
METAR KABQ 140152Z 36007KT 10SM CLR 03/M14 A3031 RMK AO2 SLP273 T00331139
Observed Flight Rules
Dec-14 @ 01:52 UTC (14 minutes ago) Visual Flight Rules
Wind Visibility Clouds
360° at 7 knots 10 miles
  • Clear skies
Temperatures Readings
Current 3°C / 37°F
Dewpoint -14°C / 7°F
Humidity 28%
Altimeter 30.31" Hg
Pressure 1027.3 hPa
Elevation 1618
METAR KABQ 140152Z 36007KT 10SM CLR 03/M14 A3031 RMK AO2 SLP273 T00331139
Observed Flight Rules
Dec-14 @ 01:52 UTC
(14 minutes ago)
VFR
Wind Visibility
360° at 7 knots 10 miles
Clouds
  • Clear skies
Temperature Dewpoint
3°C / 37°F -14°C / 7°F
Humidity Altimeter Pressure
28% 30.31" Hg 1027.3 hPa